Queen Of Burnaby — VCVV — position and weather

sailwx.info

Track history (hours):
 
Tides and Currents Weather Stations Pressure Air Temp Water Temp Dewpoint Dewpoint Depression Visibility Wind Speed Wind Dir Waves Ship Positions

Queen Of Burnaby

Last reported at 2017-May-23 16:11 UTC. Time now 2017-May-23 17:04 UTC.
Position N 49°47' W 124°11'.

Length 130 m; draft 3.8 m.

MMSI: 316001246.

Date/timePositionNaut miles runAvg speedWind from/ knotsBaromVisibWave heightAir tempDewpointWater temp
2017-May-23 16:11N 49°47' W 124°11'0 0.0
2017-May-23 15:53N 49°47' W 124°11'0 0.0
2017-May-23 15:26N 49°47' W 124°11'0 0.0
2017-May-23 14:59N 49°47' W 124°11'0 0.0
2017-May-23 12:05N 49°47' W 124°11'0 0.0
2017-May-23 08:29N 49°47' W 124°11'0 0.0
2017-May-23 06:59N 49°47' W 124°11'0 0.0
2017-May-22 15:11N 49°47' W 124°11'0 0.0
2017-May-22 13:53N 49°47' W 124°11'0 0.0
2017-May-22 12:35N 49°47' W 124°11'0 0.0
2017-May-22 12:29N 49°47' W 124°11'0 0.0
2017-May-22 08:23N 49°47' W 124°11'  
2017-May-16 13:01N 49°47' W 124°11'0 0.2
2017-May-16 12:59N 49°47' W 124°11'2 1.6
2017-May-16 11:46N 49°46' W 124°08'3 9.9
2017-May-16 11:30N 49°46' W 124°12'4 8.8
2017-May-16 11:00N 49°43' W 124°17'4 8.5
2017-May-16 10:30N 49°45' W 124°23'4 8.2
2017-May-16 10:00N 49°46' W 124°29'4 8.4
2017-May-16 09:31N 49°49' W 124°33'1 2.6
2017-May-16 08:56N 49°50' W 124°32'0 0.0
2017-May-16 08:30N 49°50' W 124°32'0 0.0
2017-May-16 07:58N 49°50' W 124°32'1 2.4
2017-May-16 07:30N 49°49' W 124°33'714.0
2017-May-16 07:00N 49°46' W 124°43'713.9
2017-May-16 06:29N 49°45' W 124°54'1 2.2
2017-May-16 06:00N 49°44' W 124°55'0 0.0
2017-May-16 05:12N 49°44' W 124°55'0 0.0
2017-May-16 05:00N 49°44' W 124°55'0 0.0
2017-May-16 04:30N 49°44' W 124°55'0 0.0
2017-May-16 03:57N 49°44' W 124°55'0 0.0
2017-May-16 03:15N 49°44' W 124°55'0 0.0
2017-May-16 02:54N 49°44' W 124°55'0 0.0
2017-May-16 02:27N 49°44' W 124°55'0 0.0
2017-May-16 02:00N 49°44' W 124°55'2 5.0
2017-May-16 01:30N 49°44' W 124°52'510.8
2017-May-16 01:00N 49°45' W 124°43'612.7
2017-May-16 00:31N 49°49' W 124°36'3 5.9
2017-May-16 00:00N 49°50' W 124°32'3 6.7
2017-May-15 23:31N 49°49' W 124°37'612.3
2017-May-15 23:00N 49°45' W 124°44'713.6
2017-May-15 22:30N 49°45' W 124°55'1 1.0
2017-May-15 22:00N 49°44' W 124°55'0 0.0
2017-May-15 21:27N 49°44' W 124°55'0 0.0
2017-May-15 20:45N 49°44' W 124°55'0 0.0
2017-May-15 20:24N 49°44' W 124°55'2 5.9
2017-May-15 20:00N 49°46' W 124°52'612.1
2017-May-15 19:30N 49°47' W 124°43'612.1
2017-May-15 19:00N 49°50' W 124°35'2 3.6
2017-May-15 18:31N 49°50' W 124°32'4 8.9
2017-May-15 18:00N 49°49' W 124°39'713.7
2017-May-15 17:30N 49°46' W 124°48'5 9.8
2017-May-15 17:00N 49°44' W 124°55'0 0.0
2017-May-15 16:30N 49°44' W 124°55'510.7
2017-May-15 16:00N 49°47' W 124°48'612.2
2017-May-15 15:30N 49°49' W 124°39'5 9.6
2017-May-15 15:00N 49°50' W 124°32'8 8.1
2017-May-15 14:00N 49°47' W 124°44'815.3
2017-May-15 13:30N 49°45' W 124°55'0 0.9
2017-May-15 13:00N 49°44' W 124°55'0 0.0
2017-May-15 11:24N 49°44' W 124°55'0 0.0
2017-May-15 10:57N 49°44' W 124°55'0 0.0
2017-May-15 10:03N 49°44' W 124°55'0 0.0
2017-May-15 08:33N 49°44' W 124°55'0 0.0
2017-May-15 08:21N 49°44' W 124°55'0 0.0
2017-May-15 07:57N 49°44' W 124°55'0 0.0
2017-May-15 07:27N 49°44' W 124°55'0 0.0
2017-May-15 06:57N 49°44' W 124°55'0 0.0
2017-May-15 06:30N 49°44' W 124°55'0 0.0
2017-May-15 06:00N 49°44' W 124°55'0 0.0
2017-May-15 05:27N 49°44' W 124°55'0 0.1
2017-May-15 05:00N 49°44' W 124°55'714.0
2017-May-15 04:30N 49°47' W 124°45'815.9
2017-May-15 04:00N 49°50' W 124°34'1 2.4
2017-May-15 03:30N 49°50' W 124°32'713.3
2017-May-15 03:00N 49°48' W 124°42'715.2
2017-May-15 02:31N 49°45' W 124°53'2 3.7
2017-May-15 01:57N 49°44' W 124°55'0 0.0
2017-May-15 01:29N 49°44' W 124°55'612.0
2017-May-15 01:01N 49°47' W 124°47'714.4
2017-May-15 00:30N 49°49' W 124°37'3 6.6
2017-May-15 00:00N 49°50' W 124°32'1 2.9
2017-May-14 23:31N 49°51' W 124°34'714.7
2017-May-14 23:01N 49°47' W 124°44'714.6
2017-May-14 22:30N 49°45' W 124°55'0 0.2
2017-May-14 20:15N 49°44' W 124°55'1 6.0
2017-May-14 20:00N 49°45' W 124°54'612.7
2017-May-14 19:31N 49°47' W 124°44'612.9
2017-May-14 19:01N 49°49' W 124°35'2 4.2
2017-May-14 18:30N 49°50' W 124°32'3 6.8
2017-May-14 18:00N 49°49' W 124°37'714.5
2017-May-14 17:30N 49°46' W 124°47'611.2
2017-May-14 17:00N 49°44' W 124°55'0 0.0
2017-May-14 16:30N 49°44' W 124°55'5 9.2
2017-May-14 16:00N 49°46' W 124°49'612.5
2017-May-14 15:30N 49°48' W 124°40'510.9
2017-May-14 15:00N 49°50' W 124°32'3 5.3
2017-May-14 14:30N 49°50' W 124°36'1212.0
2017-May-14 13:29N 49°45' W 124°53'1 2.7
2017-May-14 12:58N 49°44' W 124°55'0 0.0
2017-May-14 12:30N 49°44' W 124°55'0 0.0
2017-May-14 11:03N 49°44' W 124°55'0 0.0
2017-May-14 11:00N 49°44' W 124°55'0 0.0
2017-May-14 10:27N 49°44' W 124°55'0 0.0
2017-May-14 05:21N 49°44' W 124°55'0 0.2
2017-May-14 05:00N 49°44' W 124°55'714.2
2017-May-14 04:30N 49°47' W 124°45'815.7
2017-May-14 04:00N 49°50' W 124°34'1 2.4
2017-May-14 03:30N 49°50' W 124°32'3 5.8
2017-May-14 03:00N 49°50' W 124°36'713.7
2017-May-14 02:29N 49°47' W 124°47'612.7
2017-May-14 02:01N 49°45' W 124°55'0 0.4
2017-May-14 01:27N 49°44' W 124°55'0 0.0
2017-May-14 01:00N 49°44' W 124°55'0 0.0
2017-May-14 00:24N 49°44' W 124°55'0 0.0
2017-May-14 00:00N 49°44' W 124°55'0 0.0
2017-May-13 23:30N 49°44' W 124°55'0 0.0
2017-May-13 22:48N 49°44' W 124°55'0 0.0
2017-May-13 21:39N 49°44' W 124°55'0 0.0
2017-May-13 21:18N 49°44' W 124°55'0 0.0
2017-May-13 20:57N 49°44' W 124°55'0 0.0
2017-May-13 20:18N 49°44' W 124°55'1 4.9
2017-May-13 20:00N 49°45' W 124°54'612.5
2017-May-13 19:30N 49°47' W 124°45'612.7
2017-May-13 19:00N 49°49' W 124°35'2 4.4
2017-May-13 18:30N 49°50' W 124°32'3 5.8
2017-May-13 18:00N 49°50' W 124°36'714.5
2017-May-13 17:30N 49°47' W 124°47'612.3
2017-May-13 17:01N 49°44' W 124°55'0 0.1
2017-May-13 16:30N 49°44' W 124°55'  
Track history (hours):
 
Tides and Currents Weather Stations Pressure Air Temp Water Temp Dewpoint Dewpoint Depression Visibility Wind Speed Wind Dir Waves Ship Positions

Queen Of Burnaby

Last reported at 2017-May-23 16:11 UTC. Time now 2017-May-23 17:04 UTC.
Position N 49°47' W 124°11'.

Length 130 m; draft 3.8 m.

MMSI: 316001246.

Date/timePositionNaut miles runAvg speedWind from/ knotsBaromVisibWave heightAir tempDewpointWater temp
2017-May-23 16:11N 49°47' W 124°11'0 0.0
2017-May-23 15:53N 49°47' W 124°11'0 0.0
2017-May-23 15:26N 49°47' W 124°11'0 0.0
2017-May-23 14:59N 49°47' W 124°11'0 0.0
2017-May-23 12:05N 49°47' W 124°11'0 0.0
2017-May-23 08:29N 49°47' W 124°11'0 0.0
2017-May-23 06:59N 49°47' W 124°11'0 0.0
2017-May-22 15:11N 49°47' W 124°11'0 0.0
2017-May-22 13:53N 49°47' W 124°11'0 0.0
2017-May-22 12:35N 49°47' W 124°11'0 0.0
2017-May-22 12:29N 49°47' W 124°11'0 0.0
2017-May-22 08:23N 49°47' W 124°11'  
2017-May-16 13:01N 49°47' W 124°11'0 0.2
2017-May-16 12:59N 49°47' W 124°11'2 1.6
2017-May-16 11:46N 49°46' W 124°08'3 9.9
2017-May-16 11:30N 49°46' W 124°12'4 8.8
2017-May-16 11:00N 49°43' W 124°17'4 8.5
2017-May-16 10:30N 49°45' W 124°23'4 8.2
2017-May-16 10:00N 49°46' W 124°29'4 8.4
2017-May-16 09:31N 49°49' W 124°33'1 2.6
2017-May-16 08:56N 49°50' W 124°32'0 0.0
2017-May-16 08:30N 49°50' W 124°32'0 0.0
2017-May-16 07:58N 49°50' W 124°32'1 2.4
2017-May-16 07:30N 49°49' W 124°33'714.0
2017-May-16 07:00N 49°46' W 124°43'713.9
2017-May-16 06:29N 49°45' W 124°54'1 2.2
2017-May-16 06:00N 49°44' W 124°55'0 0.0
2017-May-16 05:12N 49°44' W 124°55'0 0.0
2017-May-16 05:00N 49°44' W 124°55'0 0.0
2017-May-16 04:30N 49°44' W 124°55'0 0.0
2017-May-16 03:57N 49°44' W 124°55'0 0.0
2017-May-16 03:15N 49°44' W 124°55'0 0.0
2017-May-16 02:54N 49°44' W 124°55'0 0.0
2017-May-16 02:27N 49°44' W 124°55'0 0.0
2017-May-16 02:00N 49°44' W 124°55'2 5.0
2017-May-16 01:30N 49°44' W 124°52'510.8
2017-May-16 01:00N 49°45' W 124°43'612.7
2017-May-16 00:31N 49°49' W 124°36'3 5.9
2017-May-16 00:00N 49°50' W 124°32'3 6.7
2017-May-15 23:31N 49°49' W 124°37'612.3
2017-May-15 23:00N 49°45' W 124°44'713.6
2017-May-15 22:30N 49°45' W 124°55'1 1.0
2017-May-15 22:00N 49°44' W 124°55'0 0.0
2017-May-15 21:27N 49°44' W 124°55'0 0.0
2017-May-15 20:45N 49°44' W 124°55'0 0.0
2017-May-15 20:24N 49°44' W 124°55'2 5.9
2017-May-15 20:00N 49°46' W 124°52'612.1
2017-May-15 19:30N 49°47' W 124°43'612.1
2017-May-15 19:00N 49°50' W 124°35'2 3.6
2017-May-15 18:31N 49°50' W 124°32'4 8.9
2017-May-15 18:00N 49°49' W 124°39'713.7
2017-May-15 17:30N 49°46' W 124°48'5 9.8
2017-May-15 17:00N 49°44' W 124°55'0 0.0
2017-May-15 16:30N 49°44' W 124°55'510.7
2017-May-15 16:00N 49°47' W 124°48'612.2
2017-May-15 15:30N 49°49' W 124°39'5 9.6
2017-May-15 15:00N 49°50' W 124°32'8 8.1
2017-May-15 14:00N 49°47' W 124°44'815.3
2017-May-15 13:30N 49°45' W 124°55'0 0.9
2017-May-15 13:00N 49°44' W 124°55'0 0.0
2017-May-15 11:24N 49°44' W 124°55'0 0.0
2017-May-15 10:57N 49°44' W 124°55'0 0.0
2017-May-15 10:03N 49°44' W 124°55'0 0.0
2017-May-15 08:33N 49°44' W 124°55'0 0.0
2017-May-15 08:21N 49°44' W 124°55'0 0.0
2017-May-15 07:57N 49°44' W 124°55'0 0.0
2017-May-15 07:27N 49°44' W 124°55'0 0.0
2017-May-15 06:57N 49°44' W 124°55'0 0.0
2017-May-15 06:30N 49°44' W 124°55'0 0.0
2017-May-15 06:00N 49°44' W 124°55'0 0.0
2017-May-15 05:27N 49°44' W 124°55'0 0.1
2017-May-15 05:00N 49°44' W 124°55'714.0
2017-May-15 04:30N 49°47' W 124°45'815.9
2017-May-15 04:00N 49°50' W 124°34'1 2.4
2017-May-15 03:30N 49°50' W 124°32'713.3
2017-May-15 03:00N 49°48' W 124°42'715.2
2017-May-15 02:31N 49°45' W 124°53'2 3.7
2017-May-15 01:57N 49°44' W 124°55'0 0.0
2017-May-15 01:29N 49°44' W 124°55'612.0
2017-May-15 01:01N 49°47' W 124°47'714.4
2017-May-15 00:30N 49°49' W 124°37'3 6.6
2017-May-15 00:00N 49°50' W 124°32'1 2.9
2017-May-14 23:31N 49°51' W 124°34'714.7
2017-May-14 23:01N 49°47' W 124°44'714.6
2017-May-14 22:30N 49°45' W 124°55'0 0.2
2017-May-14 20:15N 49°44' W 124°55'1 6.0
2017-May-14 20:00N 49°45' W 124°54'612.7
2017-May-14 19:31N 49°47' W 124°44'612.9
2017-May-14 19:01N 49°49' W 124°35'2 4.2
2017-May-14 18:30N 49°50' W 124°32'3 6.8
2017-May-14 18:00N 49°49' W 124°37'714.5
2017-May-14 17:30N 49°46' W 124°47'611.2
2017-May-14 17:00N 49°44' W 124°55'0 0.0
2017-May-14 16:30N 49°44' W 124°55'5 9.2
2017-May-14 16:00N 49°46' W 124°49'612.5
2017-May-14 15:30N 49°48' W 124°40'510.9
2017-May-14 15:00N 49°50' W 124°32'3 5.3
2017-May-14 14:30N 49°50' W 124°36'1212.0
2017-May-14 13:29N 49°45' W 124°53'1 2.7
2017-May-14 12:58N 49°44' W 124°55'0 0.0
2017-May-14 12:30N 49°44' W 124°55'0 0.0
2017-May-14 11:03N 49°44' W 124°55'0 0.0
2017-May-14 11:00N 49°44' W 124°55'0 0.0
2017-May-14 10:27N 49°44' W 124°55'0 0.0
2017-May-14 05:21N 49°44' W 124°55'0 0.2
2017-May-14 05:00N 49°44' W 124°55'714.2
2017-May-14 04:30N 49°47' W 124°45'815.7
2017-May-14 04:00N 49°50' W 124°34'1 2.4
2017-May-14 03:30N 49°50' W 124°32'3 5.8
2017-May-14 03:00N 49°50' W 124°36'713.7
2017-May-14 02:29N 49°47' W 124°47'612.7
2017-May-14 02:01N 49°45' W 124°55'0 0.4
2017-May-14 01:27N 49°44' W 124°55'0 0.0
2017-May-14 01:00N 49°44' W 124°55'0 0.0
2017-May-14 00:24N 49°44' W 124°55'0 0.0
2017-May-14 00:00N 49°44' W 124°55'0 0.0
2017-May-13 23:30N 49°44' W 124°55'0 0.0
2017-May-13 22:48N 49°44' W 124°55'0 0.0
2017-May-13 21:39N 49°44' W 124°55'0 0.0
2017-May-13 21:18N 49°44' W 124°55'0 0.0
2017-May-13 20:57N 49°44' W 124°55'0 0.0
2017-May-13 20:18N 49°44' W 124°55'1 4.9
2017-May-13 20:00N 49°45' W 124°54'612.5
2017-May-13 19:30N 49°47' W 124°45'612.7
2017-May-13 19:00N 49°49' W 124°35'2 4.4
2017-May-13 18:30N 49°50' W 124°32'3 5.8
2017-May-13 18:00N 49°50' W 124°36'714.5
2017-May-13 17:30N 49°47' W 124°47'612.3
2017-May-13 17:01N 49°44' W 124°55'0 0.1
2017-May-13 16:30N 49°44' W 124°55'  

Dump ship's entire track history